Time;durP1;ratioP1;P1;durP2;ratioP2;P2;SDS_P1;SDS_P2;PMS_P1;PMS_P2;Temp;Humidity;BMP_temperature;BMP_pressure;BME280_temperature;BME280_humidity;BME280_pressure;Samples;Min_cycle;Max_cycle;Signal;HPM_P1;HPM_P2
2023/02/01 00:02:01;;;;;;;6.30;4.22;;;9.30;66.70;;;;;;2428818;55;20943;-84
2023/02/01 00:04:28;;;;;;;5.85;3.97;;;9.30;66.70;;;;;;2428997;55;20983;-83
2023/02/01 00:06:54;;;;;;;7.22;4.62;;;9.30;66.60;;;;;;2429412;55;21022;-84
2023/02/01 00:09:20;;;;;;;8.55;4.60;;;9.30;66.70;;;;;;2428676;55;20955;-84
2023/02/01 00:11:46;;;;;;;7.25;4.65;;;9.30;66.50;;;;;;2212482;55;20980;-84
2023/02/01 00:14:13;;;;;;;7.00;4.37;;;9.30;66.70;;;;;;2212209;55;20971;-83
2023/02/01 00:16:39;;;;;;;7.35;4.22;;;9.40;66.90;;;;;;2429243;55;20959;-83
2023/02/01 00:19:11;;;;;;;5.78;3.70;;;9.30;66.70;;;;;;2428952;55;21015;-83
2023/02/01 00:21:38;;;;;;;7.70;3.55;;;9.30;66.80;;;;;;2433409;55;20995;-82
2023/02/01 00:24:06;;;;;;;5.50;3.58;;;9.30;66.70;;;;;;2449743;55;20959;-83
2023/02/01 00:26:40;;;;;;;7.95;3.97;;;9.30;66.80;;;;;;2211861;56;20979;-84
2023/02/01 00:29:10;;;;;;;6.00;3.62;;;9.30;66.70;;;;;;2212423;55;20935;-83
2023/02/01 00:31:36;;;;;;;6.47;3.45;;;9.30;66.90;;;;;;2429017;55;22106;-85
2023/02/01 00:34:03;;;;;;;6.28;3.45;;;9.30;66.70;;;;;;2429515;55;21011;-84
2023/02/01 00:36:29;;;;;;;5.97;3.50;;;9.30;66.70;;;;;;2429305;55;21443;-82
2023/02/01 00:38:56;;;;;;;7.10;4.15;;;9.20;67.60;;;;;;2429107;55;20951;-83
2023/02/01 00:41:23;;;;;;;6.00;3.95;;;9.20;66.80;;;;;;2428602;55;21737;-83
2023/02/01 00:43:49;;;;;;;7.32;3.80;;;9.20;66.80;;;;;;2212300;55;22064;-84
2023/02/01 00:46:16;;;;;;;5.70;3.45;;;9.30;66.80;;;;;;2212356;56;20951;-84
2023/02/01 00:48:43;;;;;;;7.07;4.15;;;9.20;66.80;;;;;;2429627;55;20995;-84
2023/02/01 00:51:14;;;;;;;6.55;3.75;;;9.20;66.60;;;;;;2213078;55;21876;-84
2023/02/01 00:53:40;;;;;;;6.12;3.65;;;9.30;66.90;;;;;;2429523;55;20971;-83
2023/02/01 00:56:07;;;;;;;5.97;3.58;;;9.20;66.50;;;;;;2429583;55;21085;-83
2023/02/01 00:58:33;;;;;;;5.75;3.53;;;9.30;66.90;;;;;;2429052;55;21031;-84
2023/02/01 01:01:13;;;;;;;6.07;3.60;;;9.20;66.50;;;;;;2429775;55;20970;-84
2023/02/01 01:03:43;;;;;;;5.68;3.40;;;9.20;66.80;;;;;;2429672;55;22006;-83
2023/02/01 01:06:12;;;;;;;6.03;3.67;;;9.20;66.90;;;;;;2428952;55;21468;-84
2023/02/01 01:08:38;;;;;;;6.45;3.92;;;9.20;66.90;;;;;;2429558;55;21456;-84
2023/02/01 01:11:08;;;;;;;5.80;3.62;;;9.20;66.90;;;;;;2429703;55;21050;-83
2023/02/01 01:13:35;;;;;;;7.20;3.90;;;9.20;66.90;;;;;;2212572;56;21121;-84
2023/02/01 01:16:02;;;;;;;6.82;3.60;;;9.20;66.80;;;;;;2427553;55;21097;-84
2023/02/01 01:18:30;;;;;;;5.12;3.42;;;9.30;67.00;;;;;;2429154;55;21920;-83
2023/02/01 01:20:56;;;;;;;6.03;3.60;;;9.10;66.80;;;;;;2213336;56;21006;-83
2023/02/01 01:23:22;;;;;;;6.50;3.62;;;9.20;66.60;;;;;;2428956;55;20931;-84
2023/02/01 01:25:49;;;;;;;5.78;3.28;;;9.10;66.90;;;;;;2212726;55;21051;-84
2023/02/01 01:28:15;;;;;;;5.93;3.55;;;9.10;66.90;;;;;;2428985;55;22484;-83
2023/02/01 01:30:42;;;;;;;7.37;4.05;;;9.20;66.80;;;;;;2429040;55;21907;-84
2023/02/01 01:33:08;;;;;;;6.07;3.30;;;9.20;66.60;;;;;;2429199;55;21092;-84
2023/02/01 01:35:34;;;;;;;6.95;3.42;;;9.10;66.80;;;;;;2429288;55;20988;-83
2023/02/01 01:38:01;;;;;;;6.35;3.67;;;9.10;66.70;;;;;;2430266;55;20971;-83
2023/02/01 01:40:27;;;;;;;6.28;3.33;;;9.10;66.70;;;;;;2429361;55;21026;-83
2023/02/01 01:42:55;;;;;;;5.72;3.25;;;9.10;66.90;;;;;;2429692;55;20986;-83
2023/02/01 01:45:39;;;;;;;6.87;3.97;;;9.10;66.80;;;;;;2430134;55;20983;-84
2023/02/01 01:48:28;;;;;;;5.85;3.60;;;9.10;66.60;;;;;;2430755;55;22112;-84
2023/02/01 01:51:06;;;;;;;5.85;3.20;;;9.10;66.60;;;;;;2431025;55;21050;-83
2023/02/01 01:53:38;;;;;;;6.35;3.90;;;9.10;66.90;;;;;;2431266;55;21234;-86
2023/02/01 01:56:05;;;;;;;6.70;3.92;;;9.10;66.80;;;;;;2432405;55;21839;-83
2023/02/01 01:58:32;;;;;;;6.57;3.62;;;9.10;66.80;;;;;;2431555;55;20999;-84
2023/02/01 02:00:58;;;;;;;5.15;3.25;;;9.10;66.80;;;;;;2430809;55;20951;-84
2023/02/01 02:03:33;;;;;;;7.97;3.85;;;9.10;66.90;;;;;;2214259;56;20954;-84
2023/02/01 02:06:00;;;;;;;6.45;3.60;;;9.20;66.90;;;;;;2431943;55;21935;-83
2023/02/01 02:08:27;;;;;;;6.75;3.70;;;9.10;66.80;;;;;;2430216;55;21023;-83
2023/02/01 02:11:02;;;;;;;7.07;3.72;;;9.10;66.80;;;;;;2422389;56;21015;-84
2023/02/01 02:13:37;;;;;;;5.80;3.12;;;9.10;66.90;;;;;;2430128;55;20970;-83
2023/02/01 02:16:39;;;;;;;7.20;3.60;;;9.10;66.80;;;;;;2429994;55;21059;-84
2023/02/01 02:21:35;;;;;;;5.28;3.42;;;9.10;66.60;;;;;;2437554;54;21109;-84
2023/02/01 02:26:42;;;;;;;5.62;2.92;;;9.10;66.20;;;;;;2428748;55;21863;-84
2023/02/01 02:29:36;;;;;;;6.78;3.55;;;9.10;66.10;;;;;;2427971;55;20947;-83
2023/02/01 02:33:11;;;;;;;4.97;2.70;;;9.10;66.30;;;;;;2212099;56;21110;-84
2023/02/01 02:35:59;;;;;;;5.95;3.37;;;9.00;65.90;;;;;;2453165;54;21064;-84
2023/02/01 03:04:56;;;;;;;5.78;2.72;;;8.90;66.80;;;;;;2212129;56;20959;-84
2023/02/01 03:07:49;;;;;;;5.45;3.12;;;8.90;66.80;;;;;;2212156;55;22448;-84
2023/02/01 03:10:34;;;;;;;;;;;9.00;66.60;;;;;;2431555;55;21043;-83
2023/02/01 03:13:06;;;;;;;5.55;2.58;;;8.90;66.20;;;;;;2428642;55;20074;-84
2023/02/01 03:17:09;;;;;;;4.85;2.42;;;8.90;66.90;;;;;;2428080;55;21591;-83
2023/02/01 03:19:43;;;;;;;4.18;2.22;;;9.00;67.00;;;;;;2429058;55;21023;-84
2023/02/01 03:22:12;;;;;;;5.57;2.75;;;8.90;67.00;;;;;;2429595;55;20975;-85
2023/02/01 03:24:46;;;;;;;5.12;2.50;;;9.00;67.10;;;;;;2428479;55;21875;-84
2023/02/01 03:28:01;;;;;;;4.20;2.50;;;8.90;67.00;;;;;;2429296;55;22057;-84
2023/02/01 03:30:46;;;;;;;6.00;2.83;;;8.90;66.80;;;;;;2220859;55;21143;-83
2023/02/01 03:33:21;;;;;;;4.82;2.50;;;8.90;67.00;;;;;;2445450;55;21121;-83
2023/02/01 03:36:09;;;;;;;5.07;2.55;;;8.90;67.00;;;;;;2429483;55;20950;-83
2023/02/01 03:38:48;;;;;;;5.10;2.55;;;9.00;67.50;;;;;;2429029;55;21032;-84
2023/02/01 03:41:28;;;;;;;5.37;2.53;;;9.00;67.00;;;;;;2429292;55;21975;-82
2023/02/01 03:43:58;;;;;;;5.15;2.72;;;9.10;66.90;;;;;;2429077;55;21030;-83
2023/02/01 03:46:32;;;;;;;6.30;2.45;;;9.00;67.00;;;;;;2429612;55;20967;-86
2023/02/01 03:49:03;;;;;;;4.28;2.42;;;9.00;67.00;;;;;;2429586;55;21042;-83
2023/02/01 03:51:29;;;;;;;5.10;2.80;;;9.00;67.00;;;;;;2429283;55;21518;-83
2023/02/01 03:53:56;;;;;;;4.68;2.53;;;9.00;66.80;;;;;;2430214;55;21093;-84
2023/02/01 03:56:23;;;;;;;5.25;2.70;;;8.90;66.60;;;;;;2428858;55;21920;-83
2023/02/01 03:58:58;;;;;;;5.62;2.83;;;9.00;66.70;;;;;;2212792;56;20967;-85
2023/02/01 04:01:26;;;;;;;4.95;2.90;;;9.00;66.80;;;;;;2428730;55;21063;-84
2023/02/01 04:03:53;;;;;;;4.25;2.60;;;8.90;66.70;;;;;;2429111;55;21636;-84
2023/02/01 04:06:19;;;;;;;5.80;2.33;;;8.90;66.70;;;;;;2429290;55;21453;-83
2023/02/01 04:08:46;;;;;;;4.62;2.37;;;8.90;66.60;;;;;;2429095;55;21006;-84
2023/02/01 04:11:12;;;;;;;5.07;2.60;;;8.90;66.70;;;;;;2429618;55;21337;-83
2023/02/01 04:13:38;;;;;;;4.95;2.33;;;8.90;66.70;;;;;;2428831;55;22092;-83
2023/02/01 04:16:05;;;;;;;5.50;2.75;;;8.90;66.60;;;;;;2212870;55;20979;-84
2023/02/01 04:18:31;;;;;;;5.95;2.10;;;8.90;66.60;;;;;;2428835;55;20951;-83
2023/02/01 04:20:57;;;;;;;5.28;2.58;;;8.90;66.60;;;;;;2429176;55;20973;-84
2023/02/01 04:23:23;;;;;;;3.87;2.00;;;8.90;66.70;;;;;;2426646;55;22093;-83
2023/02/01 04:25:50;;;;;;;4.15;1.92;;;8.90;66.60;;;;;;2424663;55;20999;-83
2023/02/01 04:28:16;;;;;;;4.75;2.22;;;8.90;66.40;;;;;;2208908;55;21315;-83
2023/02/01 04:30:43;;;;;;;4.25;2.10;;;8.90;66.30;;;;;;2424128;55;20995;-83
2023/02/01 04:33:13;;;;;;;4.22;1.95;;;8.90;66.60;;;;;;2425516;55;21126;-83
2023/02/01 04:35:40;;;;;;;3.70;1.87;;;8.90;66.50;;;;;;2425367;55;20990;-83
2023/02/01 04:38:06;;;;;;;4.30;1.80;;;9.00;66.50;;;;;;2424871;55;20959;-83
2023/02/01 04:40:33;;;;;;;3.95;1.80;;;8.90;66.60;;;;;;2423700;55;22106;-83
2023/02/01 04:43:03;;;;;;;4.07;2.05;;;9.00;66.50;;;;;;2425568;55;21982;-82
2023/02/01 04:45:30;;;;;;;3.47;1.70;;;8.90;66.30;;;;;;2424955;55;20971;-83
2023/02/01 04:47:57;;;;;;;5.65;1.70;;;8.90;66.30;;;;;;2425299;55;20971;-84
2023/02/01 04:50:23;;;;;;;4.40;1.90;;;8.80;66.30;;;;;;2451419;55;21952;-83
2023/02/01 04:52:52;;;;;;;4.15;1.80;;;9.00;66.60;;;;;;2441412;55;21007;-83
2023/02/01 04:55:19;;;;;;;4.78;2.12;;;8.90;66.30;;;;;;2436147;55;21117;-82
2023/02/01 04:57:48;;;;;;;5.32;1.77;;;9.00;66.50;;;;;;2418926;55;21058;-83
2023/02/01 05:00:16;;;;;;;4.80;2.03;;;9.00;66.80;;;;;;2204651;55;21003;-83
2023/02/01 05:02:42;;;;;;;3.35;1.65;;;9.00;66.60;;;;;;2419012;55;20967;-84
2023/02/01 05:05:12;;;;;;;5.20;1.98;;;9.00;66.60;;;;;;2419502;55;20972;-82
2023/02/01 05:07:38;;;;;;;3.55;1.77;;;9.00;66.50;;;;;;2419167;55;20947;-83
2023/02/01 05:10:05;;;;;;;4.28;1.58;;;9.00;66.20;;;;;;2412547;56;20991;-84
2023/02/01 05:15:17;;;;;;;4.10;1.50;;;9.10;66.40;;;;;;2205779;56;21011;-83
2023/02/01 05:17:43;;;;;;;5.22;2.10;;;9.00;66.50;;;;;;2420645;55;21348;-83
2023/02/01 05:20:10;;;;;;;3.67;1.52;;;9.00;66.50;;;;;;2423359;55;21016;-83
2023/02/01 05:22:37;;;;;;;4.00;1.80;;;9.00;66.30;;;;;;2422900;55;21062;-83
2023/02/01 05:25:07;;;;;;;3.37;1.52;;;9.00;66.40;;;;;;2422036;55;21974;-82
2023/02/01 05:27:34;;;;;;;3.45;1.40;;;9.00;66.50;;;;;;2421593;55;21400;-82
2023/02/01 05:30:04;;;;;;;3.58;1.62;;;9.00;66.20;;;;;;2422262;55;20979;-83
2023/02/01 05:32:31;;;;;;;3.67;1.40;;;9.00;66.60;;;;;;2421664;55;21082;-84
2023/02/01 05:34:57;;;;;;;3.55;1.62;;;9.00;66.20;;;;;;2206232;55;20978;-84
2023/02/01 05:37:24;;;;;;;4.72;2.30;;;9.10;66.40;;;;;;2423651;55;21089;-83
2023/02/01 05:39:53;;;;;;;3.72;1.80;;;9.10;66.30;;;;;;2422323;55;20998;-82
2023/02/01 05:42:19;;;;;;;3.95;2.35;;;9.00;66.30;;;;;;2422156;55;20999;-84
2023/02/01 05:44:46;;;;;;;4.80;2.28;;;9.10;66.20;;;;;;2421128;55;21015;-82
2023/02/01 05:47:12;;;;;;;3.75;1.98;;;9.20;66.40;;;;;;2422319;55;20988;-84
2023/02/01 05:49:38;;;;;;;5.20;2.67;;;9.00;66.20;;;;;;2205447;55;20962;-83
2023/02/01 05:52:05;;;;;;;3.62;2.08;;;9.00;66.00;;;;;;2205898;56;20967;-84
2023/02/01 05:54:34;;;;;;;4.10;2.30;;;9.00;66.00;;;;;;2421912;55;20963;-82
2023/02/01 05:57:03;;;;;;;;;;;9.10;66.10;;;;;;2425162;55;21082;-85
2023/02/01 05:59:30;;;;;;;3.83;2.00;;;9.00;65.20;;;;;;2419357;55;20201;-84
2023/02/01 06:01:56;;;;;;;4.12;2.17;;;9.00;65.90;;;;;;2421901;55;20975;-83
2023/02/01 06:04:22;;;;;;;3.72;1.90;;;9.00;65.90;;;;;;2420945;55;21015;-84
2023/02/01 06:06:50;;;;;;;4.47;2.05;;;9.00;65.90;;;;;;2419376;55;20943;-84
2023/02/01 06:09:16;;;;;;;4.03;2.20;;;9.00;65.90;;;;;;2445175;54;20996;-83
2023/02/01 06:11:43;;;;;;;5.03;2.47;;;9.00;66.20;;;;;;2420005;55;20962;-84
2023/02/01 06:14:09;;;;;;;4.25;2.20;;;8.90;66.00;;;;;;2420497;55;20955;-84
2023/02/01 06:16:36;;;;;;;4.40;2.05;;;8.90;65.90;;;;;;2205220;55;21040;-84
2023/02/01 06:19:02;;;;;;;3.92;2.05;;;8.90;66.10;;;;;;2204369;55;21327;-83
2023/02/01 06:21:29;;;;;;;5.15;2.70;;;8.70;65.80;;;;;;2419630;55;21472;-84
2023/02/01 06:23:57;;;;;;;6.87;2.15;;;8.90;66.20;;;;;;2419189;55;22217;-84
2023/02/01 06:26:23;;;;;;;3.55;1.98;;;8.90;66.00;;;;;;2420806;55;20999;-83
2023/02/01 06:28:50;;;;;;;4.05;2.10;;;9.00;66.10;;;;;;2420686;55;20959;-84
2023/02/01 06:31:16;;;;;;;4.87;1.75;;;8.90;66.20;;;;;;2423377;55;20967;-84
2023/02/01 06:33:42;;;;;;;4.25;1.83;;;8.90;66.20;;;;;;2419800;55;21502;-83
2023/02/01 06:36:09;;;;;;;4.40;1.80;;;8.80;65.90;;;;;;2421064;55;21181;-82
2023/02/01 06:38:39;;;;;;;3.95;1.65;;;8.90;66.20;;;;;;2204518;56;21954;-83
2023/02/01 06:41:08;;;;;;;5.62;1.85;;;8.80;65.90;;;;;;2420170;55;20966;-84
2023/02/01 06:43:35;;;;;;;3.35;1.60;;;8.80;66.10;;;;;;2420132;55;20967;-83
2023/02/01 06:46:05;;;;;;;3.50;1.70;;;8.90;65.90;;;;;;2205052;55;20966;-84
2023/02/01 06:48:32;;;;;;;3.55;1.60;;;8.80;66.20;;;;;;2420155;55;20995;-84
2023/02/01 06:51:03;;;;;;;4.10;1.55;;;8.80;66.10;;;;;;2206352;56;20994;-83
2023/02/01 06:53:29;;;;;;;3.20;1.60;;;8.90;66.00;;;;;;2421512;55;22116;-83
2023/02/01 06:55:57;;;;;;;5.37;2.00;;;8.80;66.10;;;;;;2421221;55;20982;-84
2023/02/01 06:58:24;;;;;;;4.97;1.90;;;8.80;66.20;;;;;;2421335;55;20959;-83
2023/02/01 07:00:53;;;;;;;4.28;1.92;;;8.90;66.10;;;;;;2429989;55;21037;-83
2023/02/01 07:03:20;;;;;;;4.62;1.98;;;8.70;65.80;;;;;;2437884;55;21110;-83
2023/02/01 07:05:46;;;;;;;3.50;1.62;;;8.80;66.20;;;;;;2435565;55;22014;-83
2023/02/01 07:08:12;;;;;;;4.45;1.95;;;8.80;66.10;;;;;;2434691;55;21035;-83
2023/02/01 07:10:41;;;;;;;4.82;1.98;;;8.70;65.90;;;;;;2446544;54;21084;-84
2023/02/01 07:13:14;;;;;;;3.15;1.75;;;8.80;66.20;;;;;;2436412;55;21347;-85
2023/02/01 07:15:43;;;;;;;2.85;1.40;;;8.60;66.30;;;;;;2421793;55;20945;-84
2023/02/01 07:18:14;;;;;;;3.47;1.70;;;8.70;66.20;;;;;;2444536;55;21023;-84
2023/02/01 07:20:47;;;;;;;3.75;1.75;;;8.70;66.10;;;;;;2423691;55;21003;-83
2023/02/01 07:23:20;;;;;;;3.83;2.05;;;8.50;66.20;;;;;;2421859;56;21036;-84
2023/02/01 07:25:46;;;;;;;3.12;1.55;;;8.50;66.20;;;;;;2446049;55;22258;-85
2023/02/01 07:28:13;;;;;;;4.97;1.85;;;8.70;66.20;;;;;;2440298;55;21496;-85
2023/02/01 07:30:50;;;;;;;3.58;1.60;;;8.70;66.20;;;;;;2434188;55;21701;-85
2023/02/01 07:33:21;;;;;;;4.45;1.83;;;8.60;66.10;;;;;;2434027;55;20991;-84
2023/02/01 07:35:50;;;;;;;3.70;1.55;;;8.60;66.60;;;;;;2436176;54;21066;-85
2023/02/01 07:38:17;;;;;;;2.97;1.40;;;8.70;66.70;;;;;;2447156;55;21469;-85
2023/02/01 07:40:43;;;;;;;3.80;1.50;;;8.60;66.60;;;;;;2415113;56;21058;-85
2023/02/01 07:43:13;;;;;;;3.42;1.50;;;8.50;66.50;;;;;;2204964;55;21084;-84
2023/02/01 07:45:39;;;;;;;3.17;1.55;;;8.60;66.90;;;;;;2419511;55;21331;-83
2023/02/01 07:48:08;;;;;;;4.32;2.28;;;8.60;66.70;;;;;;2420360;55;20963;-84
2023/02/01 07:50:35;;;;;;;4.05;1.98;;;8.70;66.80;;;;;;2420041;55;20971;-84
2023/02/01 07:53:05;;;;;;;4.25;2.08;;;8.60;66.60;;;;;;2441736;55;21009;-83
2023/02/01 07:55:34;;;;;;;4.95;2.55;;;8.60;66.50;;;;;;2436460;55;21037;-84
2023/02/01 07:58:01;;;;;;;4.82;2.85;;;8.50;66.50;;;;;;2429288;55;20983;-84
2023/02/01 08:03:14;;;;;;;4.40;2.70;;;8.50;67.00;;;;;;2443142;54;21073;-85
2023/02/01 08:05:43;;;;;;;5.18;2.37;;;8.50;67.00;;;;;;2430709;55;22012;-85
2023/02/01 08:08:10;;;;;;;7.00;3.37;;;8.60;67.00;;;;;;2416407;55;21101;-84
2023/02/01 08:10:36;;;;;;;5.68;3.17;;;8.70;67.10;;;;;;2200616;56;20975;-85
2023/02/01 08:13:06;;;;;;;6.22;3.20;;;8.60;67.00;;;;;;2416325;55;20963;-85
2023/02/01 08:15:32;;;;;;;5.40;3.00;;;8.60;66.90;;;;;;2225875;55;22037;-85
2023/02/01 08:17:59;;;;;;;7.07;3.00;;;8.60;67.10;;;;;;2416652;55;21055;-84
2023/02/01 08:20:25;;;;;;;8.40;2.80;;;8.60;67.20;;;;;;2201721;55;20975;-84
2023/02/01 08:22:52;;;;;;;5.70;3.33;;;8.60;67.00;;;;;;2416398;55;21349;-83
2023/02/01 08:25:20;;;;;;;5.07;2.53;;;8.60;67.20;;;;;;2416166;55;20959;-84
2023/02/01 08:27:46;;;;;;;5.07;2.67;;;8.60;67.30;;;;;;2415631;55;20963;-84
2023/02/01 08:30:13;;;;;;;5.32;2.12;;;8.60;67.40;;;;;;2222603;55;20972;-85
2023/02/01 08:32:39;;;;;;;3.55;1.95;;;8.60;67.40;;;;;;2418103;55;20951;-83
2023/02/01 08:35:05;;;;;;;2.70;1.58;;;8.60;67.50;;;;;;2416822;55;20983;-85
2023/02/01 08:37:32;;;;;;;3.95;1.90;;;8.60;67.50;;;;;;2416850;55;21971;-85
2023/02/01 08:39:58;;;;;;;3.22;1.55;;;8.60;67.50;;;;;;2200327;56;21134;-85
2023/02/01 08:45:09;;;;;;;3.62;1.25;;;8.70;67.70;;;;;;2415955;55;21011;-83
2023/02/01 08:47:35;;;;;;;3.42;1.60;;;8.70;67.70;;;;;;2416763;55;21011;-83
2023/02/01 08:50:01;;;;;;;2.53;1.12;;;8.60;67.50;;;;;;2416435;55;20939;-83
2023/02/01 08:52:28;;;;;;;4.25;1.65;;;8.70;67.60;;;;;;2416594;55;20962;-83
2023/02/01 08:54:54;;;;;;;5.03;2.00;;;8.70;67.70;;;;;;2416195;55;22257;-84
2023/02/01 08:57:20;;;;;;;2.78;1.37;;;8.80;67.80;;;;;;2416320;55;22064;-84
2023/02/01 08:59:47;;;;;;;3.12;1.30;;;8.80;67.80;;;;;;2415940;55;20959;-84
2023/02/01 09:02:14;;;;;;;3.72;1.40;;;8.80;67.90;;;;;;2202214;56;21062;-82
2023/02/01 09:04:40;;;;;;;3.53;1.40;;;8.80;68.00;;;;;;2199714;55;21015;-84
2023/02/01 09:07:08;;;;;;;3.62;1.55;;;8.90;68.00;;;;;;2416186;55;20983;-84
2023/02/01 09:09:34;;;;;;;3.85;1.75;;;8.90;67.90;;;;;;2417598;55;20963;-84
2023/02/01 09:12:00;;;;;;;5.22;1.83;;;8.90;67.70;;;;;;2202034;55;20963;-83
2023/02/01 09:14:26;;;;;;;5.12;1.70;;;8.90;67.50;;;;;;2417852;55;20950;-84
2023/02/01 09:16:53;;;;;;;3.87;1.85;;;9.00;67.70;;;;;;2201153;55;22221;-84
2023/02/01 09:19:19;;;;;;;4.78;1.90;;;9.00;67.80;;;;;;2201640;56;21993;-85
2023/02/01 09:21:52;;;;;;;5.00;1.92;;;9.00;67.50;;;;;;2417055;55;21058;-85
2023/02/01 09:24:18;;;;;;;4.05;2.10;;;9.00;67.60;;;;;;2417019;55;21535;-83
2023/02/01 09:26:45;;;;;;;5.07;2.10;;;9.00;67.50;;;;;;2202277;56;20970;-82
2023/02/01 09:29:11;;;;;;;6.10;3.15;;;9.20;67.60;;;;;;2201314;56;20994;-83
2023/02/01 09:31:38;;;;;;;5.10;2.53;;;9.10;67.50;;;;;;2416990;55;20939;-83
2023/02/01 09:34:08;;;;;;;4.37;2.28;;;9.10;67.50;;;;;;2200243;56;21062;-83
2023/02/01 09:36:34;;;;;;;5.97;2.28;;;9.10;67.60;;;;;;2415897;55;21019;-84
2023/02/01 09:39:00;;;;;;;4.75;2.25;;;9.10;67.70;;;;;;2200615;55;20975;-83
2023/02/01 09:41:49;;;;;;;3.70;2.00;;;9.10;67.80;;;;;;2416784;55;22085;-83
2023/02/01 09:47:50;;;;;;;3.25;1.70;;;9.20;67.90;;;;;;2414480;55;20982;-84
2023/02/01 09:50:22;;;;;;;4.80;2.05;;;9.20;68.30;;;;;;2415675;55;20970;-83
2023/02/01 09:53:04;;;;;;;5.55;1.83;;;9.40;68.70;;;;;;2200426;55;21394;-84
2023/02/01 09:55:51;;;;;;;3.55;2.03;;;9.30;68.60;;;;;;2418397;55;21069;-84
2023/02/01 09:58:27;;;;;;;4.30;1.77;;;9.50;68.70;;;;;;2417247;55;21050;-83
2023/02/01 10:00:55;;;;;;;6.57;2.53;;;9.50;68.60;;;;;;2416867;55;21086;-84
2023/02/01 10:03:35;;;;;;;4.45;2.25;;;9.60;68.50;;;;;;2200983;56;21023;-83
2023/02/01 10:08:39;;;;;;;5.53;1.80;;;9.60;68.20;;;;;;2415971;55;21110;-84
2023/02/01 10:11:49;;;;;;;4.12;1.80;;;9.70;67.60;;;;;;2417487;55;21424;-84
2023/02/01 10:14:51;;;;;;;3.75;1.83;;;9.80;68.00;;;;;;2416622;55;22040;-83
2023/02/01 10:18:42;;;;;;;3.58;1.50;;;9.80;68.10;;;;;;2417691;55;21118;-84
2023/02/01 10:21:38;;;;;;;3.58;1.60;;;9.90;67.50;;;;;;2417094;55;21035;-84
2023/02/01 10:25:23;;;;;;;3.28;1.58;;;9.90;68.00;;;;;;2441691;54;22087;-83
2023/02/01 10:27:49;;;;;;;5.35;1.25;;;9.90;67.30;;;;;;2417216;55;20955;-84
2023/02/01 10:30:23;;;;;;;3.92;1.60;;;9.90;68.00;;;;;;2417147;55;20978;-84
2023/02/01 10:33:37;;;;;;;2.78;1.35;;;9.90;68.00;;;;;;2417108;55;21082;-83
2023/02/01 10:36:34;;;;;;;3.85;1.67;;;10.00;66.90;;;;;;2202798;56;20976;-85
2023/02/01 10:39:01;;;;;;;3.67;1.73;;;10.00;66.50;;;;;;2201560;55;22020;-84
2023/02/01 10:41:35;;;;;;;4.57;2.17;;;10.00;66.80;;;;;;2203372;55;20963;-84
2023/02/01 10:44:03;;;;;;;4.28;2.05;;;10.00;66.60;;;;;;2417933;55;22085;-83
2023/02/01 10:46:30;;;;;;;4.05;1.55;;;10.10;66.70;;;;;;2418083;55;22091;-83
2023/02/01 10:48:57;;;;;;;3.50;1.75;;;10.10;66.60;;;;;;2203726;56;20963;-84
2023/02/01 10:51:26;;;;;;;3.78;2.00;;;10.10;66.60;;;;;;2216488;55;21819;-85
2023/02/01 10:53:55;;;;;;;3.95;1.83;;;10.10;66.40;;;;;;2432102;55;20943;-84
2023/02/01 10:56:26;;;;;;;4.00;1.60;;;10.20;66.70;;;;;;2419914;55;21039;-84
2023/02/01 10:59:03;;;;;;;4.37;1.70;;;10.10;66.50;;;;;;2418355;55;21093;-85
2023/02/01 11:01:37;;;;;;;3.22;1.45;;;10.20;66.40;;;;;;2419377;55;21564;-84
2023/02/01 11:04:05;;;;;;;3.80;1.80;;;10.20;66.40;;;;;;2443240;54;20997;-84
2023/02/01 11:06:39;;;;;;;4.70;2.00;;;10.20;66.60;;;;;;2418836;55;21116;-83
2023/02/01 11:09:24;;;;;;;3.75;2.05;;;10.20;66.50;;;;;;2418989;55;21003;-84
2023/02/01 11:11:55;;;;;;;3.75;1.87;;;10.20;66.20;;;;;;2420208;55;21031;-83
2023/02/01 11:14:37;;;;;;;4.72;2.40;;;10.20;66.40;;;;;;2419443;55;20987;-83
2023/02/01 11:18:55;;;;;;;4.90;2.67;;;10.20;66.10;;;;;;2420098;55;20986;-84
2023/02/01 11:21:22;;;;;;;3.62;2.05;;;10.20;65.40;;;;;;2418324;55;20967;-84
2023/02/01 11:23:49;;;;;;;5.95;2.40;;;10.20;66.20;;;;;;2203537;56;20943;-83
2023/02/01 11:26:23;;;;;;;7.43;2.37;;;10.20;66.10;;;;;;2418173;55;21015;-83
2023/02/01 11:29:07;;;;;;;5.43;2.45;;;10.20;66.00;;;;;;2201978;56;20963;-83
2023/02/01 11:31:34;;;;;;;4.72;2.20;;;10.20;65.90;;;;;;2436443;55;21535;-82
2023/02/01 11:34:11;;;;;;;6.75;2.65;;;10.20;65.90;;;;;;2425668;55;21047;-83
2023/02/01 11:36:38;;;;;;;7.25;3.25;;;10.20;66.10;;;;;;2418963;55;20967;-84
2023/02/01 11:39:58;;;;;;;5.57;2.95;;;10.20;66.10;;;;;;2203457;56;21490;-83
2023/02/01 11:42:26;;;;;;;4.45;2.30;;;10.20;66.40;;;;;;2212365;55;21192;-84
2023/02/01 11:46:13;;;;;;;4.20;1.90;;;10.20;66.40;;;;;;2439753;55;22113;-83
2023/02/01 11:48:40;;;;;;;6.68;2.85;;;10.20;66.60;;;;;;2435987;55;21976;-83
2023/02/01 11:54:03;;;;;;;6.45;2.85;;;10.30;66.10;;;;;;2432896;55;21023;-84
2023/02/01 11:56:57;;;;;;;5.05;1.90;;;10.30;66.00;;;;;;2421862;55;22025;-83
2023/02/01 11:59:42;;;;;;;4.00;1.60;;;10.30;66.00;;;;;;2425284;55;20978;-83
2023/02/01 12:02:49;;;;;;;5.75;2.10;;;10.30;66.30;;;;;;2447279;55;21014;-85
2023/02/01 12:10:20;;;;;;;4.25;2.40;;;10.10;65.80;;;;;;2444556;55;21217;-84
2023/02/01 12:14:57;;;;;;;4.87;1.85;;;10.30;65.50;;;;;;2417525;55;22339;-84
2023/02/01 12:17:55;;;;;;;4.37;1.48;;;10.30;65.60;;;;;;2203182;56;21138;-83
2023/02/01 12:25:14;;;;;;;4.72;1.50;;;10.30;66.10;;;;;;2201885;55;21034;-83
2023/02/01 12:28:19;;;;;;;4.05;1.58;;;10.30;65.70;;;;;;2204699;56;20943;-83
2023/02/01 12:33:48;;;;;;;7.15;2.35;;;10.30;66.00;;;;;;2203030;55;21027;-84
2023/02/01 12:36:27;;;;;;;4.68;2.08;;;10.30;65.80;;;;;;2418770;55;20971;-83
2023/02/01 12:40:40;;;;;;;7.32;2.42;;;10.30;66.30;;;;;;2420518;55;22151;-83
2023/02/01 12:43:14;;;;;;;6.75;2.12;;;10.30;65.90;;;;;;2204349;56;20947;-84
2023/02/01 12:45:43;;;;;;;5.20;1.87;;;10.30;66.30;;;;;;2419037;55;21033;-84
2023/02/01 12:48:33;;;;;;;5.30;2.20;;;10.40;66.40;;;;;;2202223;56;21019;-84
2023/02/01 12:51:05;;;;;;;6.25;2.25;;;10.40;66.20;;;;;;2419290;55;22003;-83
2023/02/01 12:54:10;;;;;;;6.22;2.58;;;10.30;66.30;;;;;;2202707;56;21566;-84
2023/02/01 12:57:02;;;;;;;6.85;2.50;;;10.40;65.90;;;;;;2417477;55;21018;-84
2023/02/01 13:01:00;;;;;;;4.80;2.07;;;10.40;65.70;;;;;;2224496;55;21064;-84
2023/02/01 13:03:42;;;;;;;6.75;2.22;;;10.40;65.20;;;;;;2204527;55;21161;-83
2023/02/01 13:06:10;;;;;;;;;;;10.50;66.00;;;;;;2423128;55;21085;-84
2023/02/01 13:08:56;;;;;;;4.93;1.62;;;10.50;65.40;;;;;;2203508;55;20078;-84
2023/02/01 13:11:29;;;;;;;5.68;1.80;;;10.50;66.20;;;;;;2204356;55;21560;-84
2023/02/01 13:14:24;;;;;;;6.50;2.08;;;10.50;66.00;;;;;;2418316;55;20951;-84
2023/02/01 13:17:45;;;;;;;6.32;2.22;;;10.50;65.50;;;;;;2418948;55;20978;-83
2023/02/01 13:20:42;;;;;;;7.40;2.62;;;10.50;65.70;;;;;;2422259;55;21120;-84
2023/02/01 13:24:22;;;;;;;7.07;2.30;;;10.50;65.70;;;;;;2205779;56;20959;-84
2023/02/01 13:26:48;;;;;;;6.47;2.30;;;10.60;64.60;;;;;;2424477;55;20997;-83
2023/02/01 13:29:16;;;;;;;8.90;2.67;;;10.60;65.90;;;;;;2425256;55;20955;-84
2023/02/01 13:32:00;;;;;;;6.03;2.42;;;10.60;65.70;;;;;;2427004;55;21058;-84
2023/02/01 13:37:59;;;;;;;4.65;1.98;;;10.60;65.10;;;;;;2436675;54;20984;-84
2023/02/01 13:40:38;;;;;;;6.18;1.92;;;10.60;64.70;;;;;;2208052;55;21034;-85
2023/02/01 13:43:17;;;;;;;5.70;1.83;;;10.60;64.90;;;;;;2423382;55;22014;-83
2023/02/01 13:45:50;;;;;;;6.95;1.70;;;10.60;64.90;;;;;;2206211;56;21008;-84
2023/02/01 13:49:01;;;;;;;6.12;1.70;;;10.60;64.90;;;;;;2422821;55;21997;-84
2023/02/01 13:51:48;;;;;;;4.65;1.33;;;10.60;65.10;;;;;;2423775;55;21125;-83
2023/02/01 13:54:33;;;;;;;4.87;1.35;;;10.60;64.50;;;;;;2421559;55;20970;-82
2023/02/01 13:57:00;;;;;;;6.85;1.42;;;10.60;64.80;;;;;;2420675;55;20975;-82
2023/02/01 14:00:38;;;;;;;7.45;2.08;;;10.60;65.00;;;;;;2205737;55;21971;-83
2023/02/01 14:03:23;;;;;;;5.70;1.70;;;10.60;63.30;;;;;;2206966;55;20978;-83
2023/02/01 14:05:58;;;;;;;4.93;1.77;;;10.60;63.80;;;;;;2207509;55;20966;-84
2023/02/01 14:08:39;;;;;;;6.93;2.03;;;10.60;64.30;;;;;;2423876;55;20990;-83
2023/02/01 14:11:05;;;;;;;6.72;2.08;;;10.60;64.20;;;;;;2207196;55;20955;-83
2023/02/01 14:13:41;;;;;;;7.32;2.03;;;10.60;64.80;;;;;;2206656;56;21063;-83
2023/02/01 14:16:16;;;;;;;8.77;1.77;;;10.60;64.40;;;;;;2448570;54;21099;-83
2023/02/01 14:18:58;;;;;;;6.82;2.00;;;10.60;64.40;;;;;;2421226;55;21027;-82
2023/02/01 14:21:37;;;;;;;5.37;1.87;;;10.60;64.40;;;;;;2232072;55;21017;-83
2023/02/01 14:24:23;;;;;;;4.78;1.65;;;10.60;64.40;;;;;;2207544;56;21550;-83
2023/02/01 14:26:54;;;;;;;8.50;1.90;;;10.60;64.40;;;;;;2423057;55;20935;-83
2023/02/01 14:29:34;;;;;;;6.25;1.52;;;10.40;64.60;;;;;;2423449;55;21098;-83
2023/02/01 14:32:12;;;;;;;4.47;1.60;;;10.60;64.50;;;;;;2422942;55;20947;-82
2023/02/01 14:34:54;;;;;;;8.27;2.10;;;10.60;64.70;;;;;;2418054;55;21378;-83
2023/02/01 14:37:31;;;;;;;10.25;2.85;;;10.60;64.40;;;;;;2417150;55;20963;-84
2023/02/01 14:40:23;;;;;;;7.40;2.20;;;10.50;64.30;;;;;;2201601;55;21100;-84
2023/02/01 14:42:53;;;;;;;5.25;1.83;;;10.60;63.70;;;;;;2419130;55;21138;-84